createdAt,value
2022-08-16T00:01:35.787Z,29.02
2022-08-16T00:04:09.703Z,28.85
2022-08-16T00:06:39.311Z,28.15
2022-08-16T00:09:10.722Z,24.90
2022-08-16T00:11:38.472Z,25.70
2022-08-16T00:14:09.126Z,27.25
2022-08-16T00:17:01.502Z,28.17
2022-08-16T00:19:28.214Z,26.55
2022-08-16T00:22:01.019Z,27.83
2022-08-16T00:24:32.651Z,26.27
2022-08-16T00:27:01.011Z,26.77
2022-08-16T00:29:29.536Z,27.83
2022-08-16T00:32:00.435Z,24.05
2022-08-16T00:34:44.248Z,25.90
2022-08-16T00:37:18.594Z,26.20
2022-08-16T00:39:58.483Z,25.60
2022-08-16T00:42:29.560Z,24.73
2022-08-16T00:45:06.321Z,25.40
2022-08-16T00:47:35.253Z,23.23
2022-08-16T00:50:08.201Z,24.60
2022-08-16T00:52:50.579Z,23.17
2022-08-16T00:55:22.290Z,24.77
2022-08-16T00:57:59.242Z,25.05
2022-08-16T01:00:30.541Z,25.95
2022-08-16T01:03:01.015Z,25.10
2022-08-16T01:05:29.145Z,25.60
2022-08-16T01:07:57.394Z,23.58
2022-08-16T01:10:31.295Z,23.92
2022-08-16T01:13:00.312Z,23.90
2022-08-16T01:15:28.784Z,23.60
2022-08-16T01:17:58.363Z,23.92
2022-08-16T01:20:30.354Z,24.98
2022-08-16T01:23:04.724Z,24.80
2022-08-16T01:25:40.144Z,25.38
2022-08-16T01:28:10.683Z,23.73
2022-08-16T01:30:50.619Z,22.45
2022-08-16T01:33:19.832Z,21.88
2022-08-16T01:35:53.799Z,23.15
2022-08-16T01:38:28.565Z,25.42
2022-08-16T01:41:01.896Z,25.30
2022-08-16T01:43:31.144Z,21.85
2022-08-16T01:46:37.979Z,22.70
2022-08-16T01:48:48.636Z,23.25
2022-08-16T01:51:17.901Z,23.35
2022-08-16T01:53:55.169Z,22.17
2022-08-16T01:56:30.721Z,22.33
2022-08-16T01:59:01.186Z,22.20
2022-08-16T02:01:29.216Z,23.55
2022-08-16T02:03:58.163Z,22.40
2022-08-16T02:06:34.786Z,21.80
2022-08-16T02:09:05.331Z,22.88
2022-08-16T02:11:47.387Z,22.50
2022-08-16T02:14:18.601Z,24.47
2022-08-16T02:16:49.352Z,22.63
2022-08-16T02:19:18.222Z,25.50
2022-08-16T02:22:08.375Z,25.50
2022-08-16T02:24:41.061Z,25.27
2022-08-16T02:27:11.402Z,23.27
2022-08-16T02:29:41.368Z,23.27
2022-08-16T02:32:50.325Z,25.38
2022-08-16T02:34:57.925Z,27.08
2022-08-16T02:37:39.758Z,25.88
2022-08-16T02:40:16.753Z,24.40
2022-08-16T02:42:45.754Z,23.77
2022-08-16T02:45:18.538Z,25.90
2022-08-16T02:48:01.149Z,24.67
2022-08-16T02:51:05.876Z,24.73
2022-08-16T02:53:23.689Z,24.65
2022-08-16T02:55:51.414Z,25.27
2022-08-16T02:58:20.462Z,23.85
2022-08-16T03:03:21.136Z,23.77
2022-08-16T03:05:52.425Z,24.23
2022-08-16T03:08:50.761Z,23.52
2022-08-16T03:11:16.455Z,23.55
2022-08-16T03:13:51.701Z,22.42
2022-08-16T03:16:37.845Z,22.80
2022-08-16T03:19:08.255Z,23.88
2022-08-16T03:21:37.716Z,22.83
2022-08-16T03:24:29.216Z,24.08
2022-08-16T03:26:58.034Z,24.00
2022-08-16T03:29:30.326Z,23.50
2022-08-16T03:32:01.228Z,24.30
2022-08-16T03:34:30.128Z,24.85
2022-08-16T03:36:58.867Z,23.63
2022-08-16T03:39:27.147Z,26.80
2022-08-16T03:41:59.675Z,24.85
2022-08-16T03:44:44.184Z,26.10
2022-08-16T03:47:19.331Z,24.42
2022-08-16T03:49:51.307Z,25.20
2022-08-16T03:52:20.398Z,23.80
2022-08-16T03:54:53.683Z,24.33
2022-08-16T03:57:31.445Z,24.10
2022-08-16T04:00:20.421Z,24.27
2022-08-16T04:03:07.350Z,24.50
2022-08-16T04:05:40.391Z,23.92
2022-08-16T04:08:23.291Z,22.90
2022-08-16T04:10:54.989Z,25.13
2022-08-16T04:14:00.655Z,25.83
2022-08-16T04:16:27.271Z,26.85
2022-08-16T04:19:02.423Z,27.77
2022-08-16T04:21:32.379Z,28.13
2022-08-16T04:24:01.307Z,29.10
2022-08-16T04:26:31.141Z,28.80
2022-08-16T04:29:16.876Z,28.60
2022-08-16T04:31:56.299Z,29.30
2022-08-16T04:34:28.995Z,27.98
2022-08-16T04:36:58.879Z,29.23
2022-08-16T04:39:36.645Z,27.77
2022-08-16T04:42:13.796Z,29.50
2022-08-16T04:44:54.120Z,30.75
2022-08-16T04:47:33.177Z,31.40
2022-08-16T04:50:06.500Z,31.67
2022-08-16T04:52:36.088Z,32.83
2022-08-16T04:55:07.564Z,34.13
2022-08-16T04:57:36.918Z,34.70
2022-08-16T05:00:30.580Z,32.20
2022-08-16T05:02:58.977Z,34.45
2022-08-16T05:05:32.997Z,36.30
2022-08-16T05:08:28.910Z,37.00
2022-08-16T05:11:00.257Z,38.35
2022-08-16T05:13:41.027Z,38.15
2022-08-16T05:16:16.596Z,37.35
2022-08-16T05:18:51.836Z,36.75
2022-08-16T05:21:20.891Z,35.42
2022-08-16T05:23:58.458Z,35.78
2022-08-16T05:26:30.616Z,35.38
2022-08-16T05:29:03.703Z,35.15
2022-08-16T05:31:31.918Z,36.42
2022-08-16T05:34:04.326Z,34.38
2022-08-16T05:36:36.780Z,34.70
2022-08-16T05:39:08.627Z,36.70
2022-08-16T05:41:45.201Z,35.13
2022-08-16T05:44:24.051Z,34.03
2022-08-16T05:46:55.804Z,34.53
2022-08-16T05:49:39.517Z,33.35
2022-08-16T05:52:11.135Z,33.85
2022-08-16T05:54:46.022Z,33.17
2022-08-16T05:57:15.990Z,33.72
2022-08-16T05:59:45.408Z,36.25
2022-08-16T06:02:14.920Z,34.72
2022-08-16T06:04:46.201Z,33.47
2022-08-16T06:07:25.085Z,32.03
2022-08-16T06:10:00.195Z,31.63
2022-08-16T06:12:31.020Z,30.50
2022-08-16T06:15:08.070Z,28.65
2022-08-16T06:17:43.967Z,28.95
2022-08-16T06:20:23.975Z,27.67
2022-08-16T06:22:58.977Z,27.60
2022-08-16T06:25:39.590Z,29.20
2022-08-16T06:28:10.250Z,27.45
2022-08-16T06:30:45.350Z,26.20
2022-08-16T06:33:22.382Z,26.33
2022-08-16T06:35:54.643Z,26.02
2022-08-16T06:38:33.923Z,25.73
2022-08-16T06:41:13.399Z,23.27
2022-08-16T06:43:42.552Z,20.05
2022-08-16T06:46:24.260Z,19.63
2022-08-16T06:49:00.300Z,20.10
2022-08-16T06:51:46.178Z,21.20
2022-08-16T06:54:17.898Z,20.77
2022-08-16T06:56:45.774Z,18.23
2022-08-16T06:59:15.048Z,16.98
2022-08-16T07:01:54.396Z,17.05
2022-08-16T07:04:32.815Z,18.75
2022-08-16T07:07:09.922Z,16.60
2022-08-16T07:09:38.131Z,16.15
2022-08-16T07:12:06.154Z,13.55
2022-08-16T07:14:37.062Z,14.32
2022-08-16T07:17:07.989Z,13.10
2022-08-16T07:20:03.053Z,14.70
2022-08-16T07:22:37.604Z,12.32
2022-08-16T07:25:29.705Z,11.60
2022-08-16T07:27:57.501Z,15.43
2022-08-16T07:30:45.591Z,12.10
2022-08-16T07:33:51.445Z,13.50
2022-08-16T07:36:21.975Z,15.73
2022-08-16T07:38:52.186Z,12.68
2022-08-16T07:41:19.880Z,11.77
2022-08-16T07:43:52.358Z,15.07
2022-08-16T07:46:38.566Z,12.73
2022-08-16T07:49:13.589Z,10.70
2022-08-16T07:51:42.374Z,10.45
2022-08-16T07:54:20.790Z,9.20
2022-08-16T07:56:49.083Z,13.48
2022-08-16T07:59:16.877Z,14.15
2022-08-16T08:01:44.386Z,13.43
2022-08-16T08:04:13.291Z,13.63
2022-08-16T08:06:43.031Z,10.82
2022-08-16T08:09:16.299Z,11.43
2022-08-16T08:12:00.704Z,13.32
2022-08-16T08:14:34.075Z,10.23
2022-08-16T08:17:01.931Z,9.15
2022-08-16T08:19:31.991Z,9.65
2022-08-16T08:22:02.483Z,10.65
2022-08-16T08:24:39.961Z,12.90
2022-08-16T08:27:11.610Z,10.27
2022-08-16T08:29:40.337Z,9.10
2022-08-16T08:32:57.881Z,10.32
2022-08-16T08:35:04.685Z,12.23
2022-08-16T08:37:55.280Z,9.75
2022-08-16T08:40:27.507Z,10.73
2022-08-16T08:43:00.295Z,10.17
2022-08-16T08:45:47.074Z,10.80
2022-08-16T08:48:34.767Z,10.63
2022-08-16T08:51:09.024Z,12.25
2022-08-16T08:53:45.741Z,12.00
2022-08-16T08:56:34.773Z,10.70
2022-08-16T08:59:27.544Z,11.43
2022-08-16T09:01:57.965Z,12.25
2022-08-16T09:04:30.042Z,8.63
2022-08-16T09:07:01.317Z,9.15
2022-08-16T09:09:33.562Z,11.05
2022-08-16T09:12:06.372Z,10.48
2022-08-16T09:14:49.376Z,8.02
2022-08-16T09:17:45.439Z,9.88
2022-08-16T09:20:13.461Z,9.30
2022-08-16T09:22:42.223Z,9.07
2022-08-16T09:25:13.069Z,9.73
2022-08-16T09:27:56.679Z,7.70
2022-08-16T09:30:31.772Z,9.25
2022-08-16T09:33:06.795Z,8.73
2022-08-16T09:35:38.615Z,8.88
2022-08-16T09:38:08.586Z,7.82
2022-08-16T09:40:42.909Z,8.35
2022-08-16T09:43:46.511Z,8.63
2022-08-16T09:46:00.999Z,8.93
2022-08-16T09:48:44.307Z,8.43
2022-08-16T09:51:14.131Z,8.60
2022-08-16T09:53:43.246Z,9.65
2022-08-16T09:56:17.767Z,8.85
2022-08-16T09:59:05.591Z,9.90
2022-08-16T10:01:36.203Z,8.65
2022-08-16T10:04:04.730Z,8.23
2022-08-16T10:06:34.360Z,8.18
2022-08-16T10:09:05.520Z,6.95
2022-08-16T10:11:52.423Z,4.60
2022-08-16T10:14:24.525Z,5.20
2022-08-16T10:17:02.406Z,6.32
2022-08-16T10:19:31.854Z,6.28
2022-08-16T10:22:04.822Z,7.22
2022-08-16T10:24:33.373Z,6.35
2022-08-16T10:27:25.751Z,6.00
2022-08-16T10:29:59.196Z,7.68
2022-08-16T10:32:30.669Z,6.28
2022-08-16T10:35:00.315Z,6.10
2022-08-16T10:37:32.928Z,6.30
2022-08-16T10:40:03.949Z,7.75
2022-08-16T10:42:31.379Z,8.18
2022-08-16T10:45:00.236Z,6.80
2022-08-16T10:47:28.152Z,6.40
2022-08-16T10:50:00.333Z,6.15
2022-08-16T10:52:27.969Z,7.20
2022-08-16T10:55:40.231Z,6.05
2022-08-16T10:57:48.939Z,6.57
2022-08-16T11:00:20.857Z,6.40
2022-08-16T11:02:58.565Z,6.63
2022-08-16T11:05:59.097Z,6.57
2022-08-16T11:08:17.943Z,5.55
2022-08-16T11:19:12.826Z,6.05
2022-08-16T11:24:42.878Z,5.50
2022-08-16T11:29:52.951Z,5.53
2022-08-16T11:32:30.109Z,6.00
2022-08-16T11:35:11.063Z,5.53
2022-08-16T11:40:38.520Z,6.82
2022-08-16T11:43:06.916Z,5.63
2022-08-16T11:45:38.253Z,5.70
2022-08-16T11:48:07.640Z,6.18
2022-08-16T11:50:35.849Z,6.10
2022-08-16T11:53:04.533Z,6.82
2022-08-16T11:55:32.103Z,6.07
2022-08-16T11:58:00.125Z,5.53
2022-08-16T12:00:33.866Z,6.57
2022-08-16T12:03:17.747Z,6.25
2022-08-16T12:05:46.224Z,5.90
2022-08-16T12:08:19.380Z,6.07
2022-08-16T12:10:47.167Z,5.90
2022-08-16T12:13:15.036Z,6.30
2022-08-16T12:15:43.653Z,6.53
2022-08-16T12:18:20.754Z,6.68
2022-08-16T12:20:50.282Z,6.68
2022-08-16T12:23:17.989Z,5.95
2022-08-16T12:25:46.134Z,6.82
2022-08-16T12:28:13.771Z,5.78
2022-08-16T12:30:45.825Z,6.43
2022-08-16T12:33:25.196Z,7.28
2022-08-16T12:35:54.847Z,6.78
2022-08-16T12:38:40.860Z,6.13
2022-08-16T12:41:09.869Z,6.35
2022-08-16T12:43:45.124Z,6.90
2022-08-16T12:46:13.371Z,6.80
2022-08-16T12:48:58.300Z,7.07
2022-08-16T12:51:58.843Z,6.40
2022-08-16T12:56:46.843Z,6.18
2022-08-16T12:59:19.910Z,5.70
2022-08-16T13:01:50.428Z,6.53
2022-08-16T13:04:25.514Z,7.43
2022-08-16T13:06:54.828Z,5.80
2022-08-16T13:09:26.506Z,6.82
2022-08-16T13:12:05.448Z,6.30
2022-08-16T13:14:38.165Z,6.10
2022-08-16T13:17:07.955Z,5.35
2022-08-16T13:20:05.468Z,5.82
2022-08-16T13:22:25.081Z,6.00
2022-08-16T13:24:53.534Z,6.18
2022-08-16T13:28:01.788Z,6.32
2022-08-16T13:30:22.087Z,6.75
2022-08-16T13:32:58.476Z,5.88
2022-08-16T13:35:34.542Z,5.80
2022-08-16T13:38:03.815Z,6.43
2022-08-16T13:40:34.109Z,5.63
2022-08-16T13:43:02.439Z,5.18
2022-08-16T13:45:36.150Z,5.35
2022-08-16T13:48:05.357Z,5.60
2022-08-16T13:50:51.517Z,5.45
2022-08-16T13:53:24.421Z,5.10
2022-08-16T13:55:58.512Z,5.80
2022-08-16T13:58:35.431Z,5.57
2022-08-16T14:01:09.698Z,6.38
2022-08-16T14:03:38.517Z,5.80
2022-08-16T14:06:07.392Z,5.60
2022-08-16T14:08:42.141Z,5.70
2022-08-16T14:11:12.050Z,5.70
2022-08-16T14:13:40.394Z,5.47
2022-08-16T14:16:12.355Z,5.22
2022-08-16T14:18:50.738Z,5.13
2022-08-16T14:21:21.901Z,5.03
2022-08-16T14:23:52.836Z,4.70
2022-08-16T14:26:21.290Z,4.82
2022-08-16T14:28:50.259Z,4.57
2022-08-16T14:31:18.723Z,4.43
2022-08-16T14:33:46.798Z,4.28
2022-08-16T14:36:18.750Z,4.13
2022-08-16T14:38:58.510Z,5.13
2022-08-16T14:41:25.959Z,5.13
2022-08-16T14:43:53.373Z,5.35
2022-08-16T14:46:21.262Z,4.95
2022-08-16T14:48:48.858Z,5.28
2022-08-16T14:51:16.569Z,5.45
2022-08-16T14:53:45.112Z,5.25
2022-08-16T14:56:17.388Z,4.63
2022-08-16T14:59:01.760Z,4.93
2022-08-16T15:01:41.533Z,4.57
2022-08-16T15:04:39.774Z,4.40
2022-08-16T15:07:05.188Z,4.78
2022-08-16T15:09:32.822Z,5.07
2022-08-16T15:12:27.162Z,4.57
2022-08-16T15:15:04.432Z,4.72
2022-08-16T15:17:41.812Z,4.90
2022-08-16T15:20:21.612Z,4.60
2022-08-16T15:22:52.985Z,5.25
2022-08-16T15:25:27.626Z,4.93
2022-08-16T15:28:02.152Z,4.80
2022-08-16T15:30:56.979Z,5.10
2022-08-16T15:33:20.210Z,4.32
2022-08-16T15:35:50.041Z,4.72
2022-08-16T15:38:58.011Z,4.57
2022-08-16T15:41:05.280Z,4.38
2022-08-16T15:43:39.938Z,4.32
2022-08-16T15:46:35.364Z,4.50
2022-08-16T15:49:12.112Z,4.20
2022-08-16T15:51:39.800Z,3.88
2022-08-16T15:54:21.334Z,4.20
2022-08-16T15:56:56.191Z,4.20
2022-08-16T15:59:27.153Z,4.40
2022-08-16T16:01:54.664Z,4.53
2022-08-16T16:04:23.392Z,4.40
2022-08-16T16:06:54.974Z,4.45
2022-08-16T16:09:26.112Z,4.20
2022-08-16T16:12:16.242Z,4.00
2022-08-16T16:14:53.145Z,4.25
2022-08-16T16:17:20.673Z,4.20
2022-08-16T16:19:49.777Z,4.60
2022-08-16T16:22:21.306Z,4.72
2022-08-16T16:24:50.228Z,4.63
2022-08-16T16:27:17.673Z,4.28
2022-08-16T16:29:46.306Z,4.28
2022-08-16T16:32:33.222Z,3.95
2022-08-16T16:35:03.017Z,4.90
2022-08-16T16:37:31.966Z,4.75
2022-08-16T16:39:59.835Z,4.90
2022-08-16T16:42:29.917Z,4.70
2022-08-16T16:45:01.230Z,4.60
2022-08-16T16:47:30.785Z,4.03
2022-08-16T16:50:09.920Z,4.72
2022-08-16T16:52:43.955Z,4.97
2022-08-16T16:55:14.798Z,4.43
2022-08-16T16:57:59.731Z,4.95
2022-08-16T17:00:37.524Z,4.82
2022-08-16T17:03:16.825Z,4.82
2022-08-16T17:05:58.601Z,4.78
2022-08-16T17:08:28.008Z,5.20
2022-08-16T17:10:57.267Z,5.18
2022-08-16T17:13:24.962Z,4.85
2022-08-16T17:15:53.930Z,4.85
2022-08-16T17:19:16.578Z,4.70
2022-08-16T17:21:11.917Z,5.05
2022-08-16T17:23:59.062Z,4.80
2022-08-16T17:26:29.991Z,5.20
2022-08-16T17:29:02.809Z,4.57
2022-08-16T17:31:43.220Z,4.70
2022-08-16T17:34:30.343Z,4.50
2022-08-16T17:36:58.996Z,5.32
2022-08-16T17:39:29.461Z,5.45
2022-08-16T17:41:57.576Z,5.07
2022-08-16T17:44:25.273Z,4.60
2022-08-16T17:46:53.212Z,4.85
2022-08-16T17:49:22.385Z,5.53
2022-08-16T17:51:49.787Z,4.97
2022-08-16T17:54:30.787Z,5.30
2022-08-16T17:56:58.737Z,5.55
2022-08-16T17:59:28.687Z,5.00
2022-08-16T18:01:56.354Z,5.32
2022-08-16T18:04:48.451Z,5.72
2022-08-16T18:07:12.785Z,6.15
2022-08-16T18:09:41.027Z,5.63
2022-08-16T18:12:44.064Z,5.35
2022-08-16T18:15:03.147Z,5.72
2022-08-16T18:17:31.239Z,5.93
2022-08-16T18:19:59.969Z,5.78
2022-08-16T18:22:30.743Z,6.53
2022-08-16T18:24:58.908Z,6.50
2022-08-16T18:27:28.364Z,5.80
2022-08-16T18:29:56.014Z,5.53
2022-08-16T18:32:24.754Z,5.78
2022-08-16T18:34:52.788Z,5.57
2022-08-16T18:37:23.440Z,5.80
2022-08-16T18:39:50.884Z,5.78
2022-08-16T18:42:18.327Z,5.50
2022-08-16T18:44:45.946Z,5.45
2022-08-16T18:47:13.387Z,6.68
2022-08-16T18:49:40.819Z,6.32
2022-08-16T18:52:08.270Z,5.82
2022-08-16T18:54:58.519Z,6.68
2022-08-16T18:57:24.355Z,6.47
2022-08-16T18:59:51.739Z,6.80
2022-08-16T19:02:56.905Z,6.60
2022-08-16T19:05:15.350Z,6.35
2022-08-16T19:07:42.825Z,7.82
2022-08-16T19:10:11.977Z,32.25
2022-08-16T19:12:52.150Z,20.55
2022-08-16T19:15:23.817Z,65.43
2022-08-16T19:17:51.249Z,45.85
2022-08-16T19:20:21.225Z,17.45
2022-08-16T19:23:04.470Z,11.00
2022-08-16T19:25:49.193Z,9.63
2022-08-16T19:28:52.004Z,7.80
2022-08-16T19:31:13.776Z,7.85
2022-08-16T19:33:53.706Z,9.25
2022-08-16T19:36:31.706Z,10.27
2022-08-16T19:39:04.581Z,15.95
2022-08-16T19:41:35.441Z,7.82
2022-08-16T19:44:03.362Z,7.78
2022-08-16T19:46:30.861Z,7.95
2022-08-16T19:48:58.286Z,8.48
2022-08-16T19:51:25.662Z,9.38
2022-08-16T19:53:53.068Z,8.80
2022-08-16T19:56:22.248Z,8.40
2022-08-16T19:59:17.449Z,7.47
2022-08-16T20:01:42.331Z,8.18
2022-08-16T20:04:12.122Z,7.80
2022-08-16T20:06:40.418Z,8.55
2022-08-16T20:09:08.158Z,7.95
2022-08-16T20:11:37.856Z,7.53
2022-08-16T20:14:06.789Z,8.40
2022-08-16T20:16:34.177Z,8.65
2022-08-16T20:19:01.553Z,8.18
2022-08-16T20:21:29.013Z,8.27
2022-08-16T20:24:15.886Z,8.40
2022-08-16T20:26:43.772Z,8.13
2022-08-16T20:29:12.721Z,7.70
2022-08-16T20:31:40.125Z,7.82
2022-08-16T20:34:07.535Z,7.68
2022-08-16T20:36:34.958Z,8.20
2022-08-16T20:39:04.838Z,8.65
2022-08-16T20:41:32.548Z,8.48
2022-08-16T20:43:59.946Z,8.90
2022-08-16T20:46:28.886Z,8.93
2022-08-16T20:48:56.265Z,10.02
2022-08-16T20:51:23.652Z,10.05
2022-08-16T20:53:51.308Z,9.02
2022-08-16T20:56:18.695Z,9.65
2022-08-16T20:58:46.072Z,8.95
2022-08-16T21:01:13.555Z,8.95
2022-08-16T21:03:42.294Z,8.82
2022-08-16T21:06:09.700Z,9.40
2022-08-16T21:08:53.156Z,9.25
2022-08-16T21:13:48.983Z,9.27
2022-08-16T21:16:18.011Z,8.77
2022-08-16T21:18:46.704Z,9.20
2022-08-16T21:21:14.101Z,9.43
2022-08-16T21:23:41.598Z,9.95
2022-08-16T21:26:11.040Z,9.63
2022-08-16T21:28:43.251Z,9.40
2022-08-16T21:31:11.738Z,9.80
2022-08-16T21:33:39.347Z,10.10
2022-08-16T21:36:08.865Z,9.93
2022-08-16T21:38:36.564Z,9.90
2022-08-16T21:41:05.382Z,9.90
2022-08-16T21:43:33.197Z,9.93
2022-08-16T21:46:01.424Z,10.55
2022-08-16T21:48:33.871Z,10.15
2022-08-16T21:51:03.169Z,10.57
2022-08-16T21:53:31.881Z,10.35
2022-08-16T21:56:00.291Z,10.52
2022-08-16T21:58:27.871Z,10.43
2022-08-16T22:00:55.677Z,11.60
2022-08-16T22:03:23.394Z,11.90
2022-08-16T22:06:11.699Z,11.02
2022-08-16T22:08:49.909Z,11.55
2022-08-16T22:11:19.753Z,11.50
2022-08-16T22:13:51.471Z,10.68
2022-08-16T22:16:26.998Z,10.45
2022-08-16T22:18:54.496Z,11.15
2022-08-16T22:21:21.884Z,10.48
2022-08-16T22:23:55.152Z,11.10
2022-08-16T22:26:30.733Z,10.68
2022-08-16T22:28:59.723Z,11.00
2022-08-16T22:31:27.358Z,11.25
2022-08-16T22:33:56.399Z,11.15
2022-08-16T22:36:23.800Z,10.70
2022-08-16T22:38:58.277Z,11.05
2022-08-16T22:41:26.914Z,10.43
2022-08-16T22:43:54.307Z,10.05
2022-08-16T22:46:21.713Z,10.55
2022-08-16T22:48:49.920Z,10.68
2022-08-16T22:51:17.427Z,11.40
2022-08-16T22:53:44.996Z,11.60
2022-08-16T22:56:15.494Z,11.52
2022-08-16T22:58:43.387Z,10.52
2022-08-16T23:01:12.674Z,9.85
2022-08-16T23:03:40.400Z,10.77
2022-08-16T23:06:08.272Z,10.88
2022-08-16T23:08:40.686Z,10.57
2022-08-16T23:11:09.982Z,10.93
2022-08-16T23:13:49.671Z,10.23
2022-08-16T23:16:22.486Z,10.40
2022-08-16T23:18:50.255Z,11.38
2022-08-16T23:21:18.545Z,11.10
2022-08-16T23:23:46.860Z,11.52
2022-08-16T23:26:36.375Z,11.93
2022-08-16T23:29:04.637Z,11.43
2022-08-16T23:31:32.419Z,10.23
2022-08-16T23:33:59.861Z,10.70
2022-08-16T23:36:27.296Z,10.05
2022-08-16T23:38:54.723Z,9.93
2022-08-16T23:41:22.111Z,10.80
2022-08-16T23:43:49.490Z,11.05
2022-08-16T23:46:19.491Z,11.63
2022-08-16T23:49:57.857Z,11.73
2022-08-16T23:51:34.868Z,12.68
2022-08-16T23:54:02.347Z,11.75
2022-08-16T23:56:32.059Z,12.75
2022-08-16T23:59:07.798Z,11.77
